sensor_id;sensor_type;location;lat;lon;timestamp;P1;durP1;ratioP1;P2;durP2;ratioP2
75912;SDS011;64592;52.168;21.040;2023-08-06T00:01:39;31.42;;;18.00;;
75912;SDS011;64592;52.168;21.040;2023-08-06T00:06:41;31.30;;;17.30;;
75912;SDS011;64592;52.168;21.040;2023-08-06T00:11:44;32.72;;;16.55;;
75912;SDS011;64592;52.168;21.040;2023-08-06T00:16:46;29.98;;;15.82;;
75912;SDS011;64592;52.168;21.040;2023-08-06T00:21:48;27.52;;;14.63;;
75912;SDS011;64592;52.168;21.040;2023-08-06T00:26:51;35.10;;;16.63;;
75912;SDS011;64592;52.168;21.040;2023-08-06T00:31:53;34.78;;;16.50;;
75912;SDS011;64592;52.168;21.040;2023-08-06T00:36:54;27.15;;;14.75;;
75912;SDS011;64592;52.168;21.040;2023-08-06T00:41:58;25.40;;;13.73;;
75912;SDS011;64592;52.168;21.040;2023-08-06T00:46:59;22.70;;;13.57;;
75912;SDS011;64592;52.168;21.040;2023-08-06T00:52:02;24.73;;;12.35;;
75912;SDS011;64592;52.168;21.040;2023-08-06T00:57:06;20.75;;;12.52;;
75912;SDS011;64592;52.168;21.040;2023-08-06T01:02:09;20.58;;;10.85;;
75912;SDS011;64592;52.168;21.040;2023-08-06T01:07:12;16.15;;;11.48;;
75912;SDS011;64592;52.168;21.040;2023-08-06T01:12:25;16.95;;;10.48;;
75912;SDS011;64592;52.168;21.040;2023-08-06T01:17:36;17.58;;;11.77;;
75912;SDS011;64592;52.168;21.040;2023-08-06T01:22:41;18.92;;;11.07;;
75912;SDS011;64592;52.168;21.040;2023-08-06T01:27:43;14.85;;;11.07;;
75912;SDS011;64592;52.168;21.040;2023-08-06T01:32:49;13.43;;;10.60;;
75912;SDS011;64592;52.168;21.040;2023-08-06T01:37:56;14.32;;;10.90;;
75912;SDS011;64592;52.168;21.040;2023-08-06T01:42:57;14.73;;;10.32;;
75912;SDS011;64592;52.168;21.040;2023-08-06T01:47:59;14.90;;;10.85;;
75912;SDS011;64592;52.168;21.040;2023-08-06T01:53:02;17.65;;;10.65;;
75912;SDS011;64592;52.168;21.040;2023-08-06T01:58:03;15.77;;;10.50;;
75912;SDS011;64592;52.168;21.040;2023-08-06T02:03:05;15.88;;;11.48;;
75912;SDS011;64592;52.168;21.040;2023-08-06T02:08:08;13.30;;;9.15;;
75912;SDS011;64592;52.168;21.040;2023-08-06T02:13:10;17.60;;;11.63;;
75912;SDS011;64592;52.168;21.040;2023-08-06T02:18:11;18.35;;;12.18;;
75912;SDS011;64592;52.168;21.040;2023-08-06T02:23:14;15.85;;;12.05;;
75912;SDS011;64592;52.168;21.040;2023-08-06T02:28:16;17.60;;;11.15;;
75912;SDS011;64592;52.168;21.040;2023-08-06T02:33:17;14.68;;;10.60;;
75912;SDS011;64592;52.168;21.040;2023-08-06T02:38:21;15.32;;;10.00;;
75912;SDS011;64592;52.168;21.040;2023-08-06T02:43:22;20.83;;;10.30;;
75912;SDS011;64592;52.168;21.040;2023-08-06T02:48:24;16.73;;;11.43;;
75912;SDS011;64592;52.168;21.040;2023-08-06T02:53:27;17.98;;;12.07;;
75912;SDS011;64592;52.168;21.040;2023-08-06T02:58:28;19.38;;;11.55;;
75912;SDS011;64592;52.168;21.040;2023-08-06T03:03:30;21.60;;;12.13;;
75912;SDS011;64592;52.168;21.040;2023-08-06T03:08:33;16.92;;;12.05;;
75912;SDS011;64592;52.168;21.040;2023-08-06T03:13:35;23.25;;;12.93;;
75912;SDS011;64592;52.168;21.040;2023-08-06T03:18:37;18.85;;;14.07;;
75912;SDS011;64592;52.168;21.040;2023-08-06T03:23:40;23.42;;;14.77;;
75912;SDS011;64592;52.168;21.040;2023-08-06T03:28:42;20.55;;;13.65;;
75912;SDS011;64592;52.168;21.040;2023-08-06T03:33:44;25.73;;;14.98;;
75912;SDS011;64592;52.168;21.040;2023-08-06T03:38:47;19.33;;;12.98;;
75912;SDS011;64592;52.168;21.040;2023-08-06T03:43:48;21.67;;;13.70;;
75912;SDS011;64592;52.168;21.040;2023-08-06T03:48:50;23.65;;;15.45;;
75912;SDS011;64592;52.168;21.040;2023-08-06T03:53:53;23.88;;;14.48;;
75912;SDS011;64592;52.168;21.040;2023-08-06T03:58:55;23.73;;;14.25;;
75912;SDS011;64592;52.168;21.040;2023-08-06T04:03:56;23.20;;;14.85;;
75912;SDS011;64592;52.168;21.040;2023-08-06T04:08:59;26.67;;;16.40;;
75912;SDS011;64592;52.168;21.040;2023-08-06T04:14:01;29.33;;;17.58;;
75912;SDS011;64592;52.168;21.040;2023-08-06T04:19:03;28.83;;;17.20;;
75912;SDS011;64592;52.168;21.040;2023-08-06T04:24:06;27.35;;;16.85;;
75912;SDS011;64592;52.168;21.040;2023-08-06T04:29:07;25.25;;;16.40;;
75912;SDS011;64592;52.168;21.040;2023-08-06T04:34:09;24.90;;;15.85;;
75912;SDS011;64592;52.168;21.040;2023-08-06T04:39:13;23.80;;;16.75;;
75912;SDS011;64592;52.168;21.040;2023-08-06T04:44:14;24.77;;;16.80;;
75912;SDS011;64592;52.168;21.040;2023-08-06T04:49:16;22.58;;;15.90;;
75912;SDS011;64592;52.168;21.040;2023-08-06T04:54:19;20.55;;;15.13;;
75912;SDS011;64592;52.168;21.040;2023-08-06T04:59:21;22.05;;;16.45;;
75912;SDS011;64592;52.168;21.040;2023-08-06T05:04:23;23.23;;;15.82;;
75912;SDS011;64592;52.168;21.040;2023-08-06T05:09:26;23.50;;;16.50;;
75912;SDS011;64592;52.168;21.040;2023-08-06T05:14:27;22.00;;;15.95;;
75912;SDS011;64592;52.168;21.040;2023-08-06T05:19:29;18.58;;;14.13;;
75912;SDS011;64592;52.168;21.040;2023-08-06T05:24:32;20.05;;;13.70;;
75912;SDS011;64592;52.168;21.040;2023-08-06T05:29:35;16.75;;;13.68;;
75912;SDS011;64592;52.168;21.040;2023-08-06T05:34:36;15.48;;;12.43;;
75912;SDS011;64592;52.168;21.040;2023-08-06T05:39:39;15.63;;;12.63;;
75912;SDS011;64592;52.168;21.040;2023-08-06T05:44:41;14.45;;;11.63;;
75912;SDS011;64592;52.168;21.040;2023-08-06T05:49:43;15.38;;;10.82;;
75912;SDS011;64592;52.168;21.040;2023-08-06T05:54:46;16.30;;;11.25;;
75912;SDS011;64592;52.168;21.040;2023-08-06T05:59:47;15.25;;;11.25;;
75912;SDS011;64592;52.168;21.040;2023-08-06T06:04:49;15.82;;;11.25;;
75912;SDS011;64592;52.168;21.040;2023-08-06T06:09:52;13.70;;;11.32;;
75912;SDS011;64592;52.168;21.040;2023-08-06T06:14:54;13.52;;;11.38;;
75912;SDS011;64592;52.168;21.040;2023-08-06T06:19:55;20.73;;;11.35;;
75912;SDS011;64592;52.168;21.040;2023-08-06T06:24:58;13.88;;;10.32;;
75912;SDS011;64592;52.168;21.040;2023-08-06T06:30:00;13.80;;;10.60;;
75912;SDS011;64592;52.168;21.040;2023-08-06T06:35:02;15.18;;;11.18;;
75912;SDS011;64592;52.168;21.040;2023-08-06T06:40:06;12.27;;;10.98;;
75912;SDS011;64592;52.168;21.040;2023-08-06T06:45:09;15.63;;;10.20;;
75912;SDS011;64592;52.168;21.040;2023-08-06T06:50:11;15.38;;;10.88;;
75912;SDS011;64592;52.168;21.040;2023-08-06T06:55:14;12.82;;;10.40;;
75912;SDS011;64592;52.168;21.040;2023-08-06T07:00:16;15.05;;;10.95;;
75912;SDS011;64592;52.168;21.040;2023-08-06T07:05:17;14.80;;;11.63;;
75912;SDS011;64592;52.168;21.040;2023-08-06T07:10:20;12.20;;;10.45;;
75912;SDS011;64592;52.168;21.040;2023-08-06T07:15:22;16.10;;;11.43;;
75912;SDS011;64592;52.168;21.040;2023-08-06T07:20:24;13.48;;;11.48;;
75912;SDS011;64592;52.168;21.040;2023-08-06T07:25:27;14.13;;;10.45;;
75912;SDS011;64592;52.168;21.040;2023-08-06T07:30:29;13.60;;;10.65;;
75912;SDS011;64592;52.168;21.040;2023-08-06T07:35:31;18.17;;;11.88;;
75912;SDS011;64592;52.168;21.040;2023-08-06T07:40:34;14.55;;;10.27;;
75912;SDS011;64592;52.168;21.040;2023-08-06T07:45:36;14.75;;;11.40;;
75912;SDS011;64592;52.168;21.040;2023-08-06T07:50:38;12.52;;;10.57;;
75912;SDS011;64592;52.168;21.040;2023-08-06T07:55:41;16.45;;;10.15;;
75912;SDS011;64592;52.168;21.040;2023-08-06T08:00:43;13.07;;;10.38;;
75912;SDS011;64592;52.168;21.040;2023-08-06T08:05:45;13.02;;;9.70;;
75912;SDS011;64592;52.168;21.040;2023-08-06T08:10:48;14.60;;;10.65;;
75912;SDS011;64592;52.168;21.040;2023-08-06T08:15:50;14.25;;;11.30;;
75912;SDS011;64592;52.168;21.040;2023-08-06T08:20:58;15.70;;;10.75;;
75912;SDS011;64592;52.168;21.040;2023-08-06T08:26:01;12.38;;;9.73;;
75912;SDS011;64592;52.168;21.040;2023-08-06T08:31:03;13.18;;;10.82;;
75912;SDS011;64592;52.168;21.040;2023-08-06T08:36:09;15.75;;;11.05;;
75912;SDS011;64592;52.168;21.040;2023-08-06T08:41:12;11.52;;;10.32;;
75912;SDS011;64592;52.168;21.040;2023-08-06T08:46:14;10.82;;;9.10;;
75912;SDS011;64592;52.168;21.040;2023-08-06T08:51:16;11.80;;;8.52;;
75912;SDS011;64592;52.168;21.040;2023-08-06T08:56:20;12.82;;;10.07;;
75912;SDS011;64592;52.168;21.040;2023-08-06T09:01:21;10.27;;;8.80;;
75912;SDS011;64592;52.168;21.040;2023-08-06T09:06:23;14.70;;;8.95;;
75912;SDS011;64592;52.168;21.040;2023-08-06T09:11:29;10.70;;;8.45;;
75912;SDS011;64592;52.168;21.040;2023-08-06T09:16:39;13.85;;;9.60;;
75912;SDS011;64592;52.168;21.040;2023-08-06T09:21:42;11.10;;;8.90;;
75912;SDS011;64592;52.168;21.040;2023-08-06T09:26:45;11.30;;;8.70;;
75912;SDS011;64592;52.168;21.040;2023-08-06T09:31:47;10.68;;;8.63;;
75912;SDS011;64592;52.168;21.040;2023-08-06T09:36:52;12.07;;;8.73;;
75912;SDS011;64592;52.168;21.040;2023-08-06T09:41:57;10.77;;;9.00;;
75912;SDS011;64592;52.168;21.040;2023-08-06T09:47:00;11.88;;;7.70;;
75912;SDS011;64592;52.168;21.040;2023-08-06T09:52:03;10.85;;;7.97;;
75912;SDS011;64592;52.168;21.040;2023-08-06T09:57:08;8.68;;;7.75;;
75912;SDS011;64592;52.168;21.040;2023-08-06T10:02:12;11.18;;;8.85;;
75912;SDS011;64592;52.168;21.040;2023-08-06T10:07:14;8.25;;;7.35;;
75912;SDS011;64592;52.168;21.040;2023-08-06T10:12:20;9.25;;;7.75;;
75912;SDS011;64592;52.168;21.040;2023-08-06T10:17:24;11.40;;;7.38;;
75912;SDS011;64592;52.168;21.040;2023-08-06T10:22:27;9.02;;;6.88;;
75912;SDS011;64592;52.168;21.040;2023-08-06T10:27:30;9.00;;;7.13;;
75912;SDS011;64592;52.168;21.040;2023-08-06T10:37:51;10.15;;;7.32;;
75912;SDS011;64592;52.168;21.040;2023-08-06T10:42:53;9.27;;;7.47;;
75912;SDS011;64592;52.168;21.040;2023-08-06T10:47:55;11.63;;;7.03;;
75912;SDS011;64592;52.168;21.040;2023-08-06T10:53:00;10.77;;;7.22;;
75912;SDS011;64592;52.168;21.040;2023-08-06T10:58:07;8.55;;;6.93;;
75912;SDS011;64592;52.168;21.040;2023-08-06T11:03:08;7.97;;;7.05;;
75912;SDS011;64592;52.168;21.040;2023-08-06T11:08:10;6.85;;;6.15;;
75912;SDS011;64592;52.168;21.040;2023-08-06T11:13:13;9.02;;;6.15;;
75912;SDS011;64592;52.168;21.040;2023-08-06T11:18:17;6.65;;;5.90;;
75912;SDS011;64592;52.168;21.040;2023-08-06T11:23:19;6.88;;;6.22;;
75912;SDS011;64592;52.168;21.040;2023-08-06T11:28:22;8.15;;;6.50;;
75912;SDS011;64592;52.168;21.040;2023-08-06T11:33:24;9.98;;;6.32;;
75912;SDS011;64592;52.168;21.040;2023-08-06T11:38:26;6.72;;;5.80;;
75912;SDS011;64592;52.168;21.040;2023-08-06T11:43:31;7.97;;;7.03;;
75912;SDS011;64592;52.168;21.040;2023-08-06T11:48:45;7.63;;;6.90;;
75912;SDS011;64592;52.168;21.040;2023-08-06T11:53:54;7.78;;;6.32;;
75912;SDS011;64592;52.168;21.040;2023-08-06T11:58:58;8.50;;;6.65;;
75912;SDS011;64592;52.168;21.040;2023-08-06T12:04:00;7.93;;;5.72;;
75912;SDS011;64592;52.168;21.040;2023-08-06T12:09:01;9.13;;;6.20;;
75912;SDS011;64592;52.168;21.040;2023-08-06T12:14:07;10.95;;;7.22;;
75912;SDS011;64592;52.168;21.040;2023-08-06T12:19:08;11.35;;;7.18;;
75912;SDS011;64592;52.168;21.040;2023-08-06T12:24:10;8.07;;;7.28;;
75912;SDS011;64592;52.168;21.040;2023-08-06T12:29:13;7.75;;;6.63;;
75912;SDS011;64592;52.168;21.040;2023-08-06T12:34:15;8.32;;;7.40;;
75912;SDS011;64592;52.168;21.040;2023-08-06T12:39:16;10.48;;;7.85;;
75912;SDS011;64592;52.168;21.040;2023-08-06T12:44:19;7.72;;;7.03;;
75912;SDS011;64592;52.168;21.040;2023-08-06T12:49:21;7.20;;;6.50;;
75912;SDS011;64592;52.168;21.040;2023-08-06T12:54:24;7.30;;;6.60;;
75912;SDS011;64592;52.168;21.040;2023-08-06T12:59:28;8.10;;;5.97;;
75912;SDS011;64592;52.168;21.040;2023-08-06T13:04:29;7.82;;;6.57;;
75912;SDS011;64592;52.168;21.040;2023-08-06T13:09:31;9.18;;;6.88;;
75912;SDS011;64592;52.168;21.040;2023-08-06T13:14:34;8.00;;;6.13;;
75912;SDS011;64592;52.168;21.040;2023-08-06T13:19:36;10.68;;;6.72;;
75912;SDS011;64592;52.168;21.040;2023-08-06T13:24:38;8.25;;;6.50;;
75912;SDS011;64592;52.168;21.040;2023-08-06T13:29:41;6.72;;;6.03;;
75912;SDS011;64592;52.168;21.040;2023-08-06T13:34:42;6.97;;;6.28;;
75912;SDS011;64592;52.168;21.040;2023-08-06T13:39:44;6.90;;;5.97;;
75912;SDS011;64592;52.168;21.040;2023-08-06T13:44:47;7.63;;;6.50;;
75912;SDS011;64592;52.168;21.040;2023-08-06T13:49:49;6.28;;;5.63;;
75912;SDS011;64592;52.168;21.040;2023-08-06T13:54:51;6.90;;;5.68;;
75912;SDS011;64592;52.168;21.040;2023-08-06T13:59:54;7.50;;;5.65;;
75912;SDS011;64592;52.168;21.040;2023-08-06T14:04:55;15.48;;;5.93;;
75912;SDS011;64592;52.168;21.040;2023-08-06T14:09:57;7.38;;;5.65;;
75912;SDS011;64592;52.168;21.040;2023-08-06T14:15:00;6.72;;;5.72;;
75912;SDS011;64592;52.168;21.040;2023-08-06T14:20:03;7.10;;;5.63;;
75912;SDS011;64592;52.168;21.040;2023-08-06T14:30:11;7.22;;;5.72;;
75912;SDS011;64592;52.168;21.040;2023-08-06T14:35:13;6.15;;;4.60;;
75912;SDS011;64592;52.168;21.040;2023-08-06T14:40:14;5.10;;;4.15;;
75912;SDS011;64592;52.168;21.040;2023-08-06T14:45:18;5.18;;;4.55;;
75912;SDS011;64592;52.168;21.040;2023-08-06T14:50:19;4.65;;;4.15;;
75912;SDS011;64592;52.168;21.040;2023-08-06T14:55:24;6.80;;;4.10;;
75912;SDS011;64592;52.168;21.040;2023-08-06T15:00:28;5.38;;;4.53;;
75912;SDS011;64592;52.168;21.040;2023-08-06T15:05:29;7.43;;;4.32;;
75912;SDS011;64592;52.168;21.040;2023-08-06T15:10:31;7.03;;;3.15;;
75912;SDS011;64592;52.168;21.040;2023-08-06T15:15:34;3.75;;;3.15;;
75912;SDS011;64592;52.168;21.040;2023-08-06T15:20:36;3.85;;;2.80;;
75912;SDS011;64592;52.168;21.040;2023-08-06T15:25:37;5.45;;;3.08;;
75912;SDS011;64592;52.168;21.040;2023-08-06T15:30:40;3.00;;;2.50;;
75912;SDS011;64592;52.168;21.040;2023-08-06T15:35:47;3.53;;;2.80;;
75912;SDS011;64592;52.168;21.040;2023-08-06T15:40:49;6.45;;;2.78;;
75912;SDS011;64592;52.168;21.040;2023-08-06T15:45:52;3.97;;;2.50;;
75912;SDS011;64592;52.168;21.040;2023-08-06T15:50:55;2.75;;;2.00;;
75912;SDS011;64592;52.168;21.040;2023-08-06T15:55:57;3.42;;;2.05;;
75912;SDS011;64592;52.168;21.040;2023-08-06T16:01:00;3.15;;;2.15;;
75912;SDS011;64592;52.168;21.040;2023-08-06T16:06:02;3.05;;;1.80;;
75912;SDS011;64592;52.168;21.040;2023-08-06T16:11:04;2.83;;;2.35;;
75912;SDS011;64592;52.168;21.040;2023-08-06T16:16:08;3.40;;;2.20;;
75912;SDS011;64592;52.168;21.040;2023-08-06T16:21:10;3.10;;;1.77;;
75912;SDS011;64592;52.168;21.040;2023-08-06T16:26:12;2.53;;;1.45;;
75912;SDS011;64592;52.168;21.040;2023-08-06T16:31:15;1.60;;;1.50;;
75912;SDS011;64592;52.168;21.040;2023-08-06T16:36:16;2.47;;;1.60;;
75912;SDS011;64592;52.168;21.040;2023-08-06T16:41:18;2.55;;;1.60;;
75912;SDS011;64592;52.168;21.040;2023-08-06T16:46:21;4.88;;;1.90;;
75912;SDS011;64592;52.168;21.040;2023-08-06T16:51:24;3.20;;;1.88;;
75912;SDS011;64592;52.168;21.040;2023-08-06T16:56:27;2.38;;;1.75;;
75912;SDS011;64592;52.168;21.040;2023-08-06T17:01:30;4.68;;;1.70;;
75912;SDS011;64592;52.168;21.040;2023-08-06T17:06:32;2.30;;;1.58;;
75912;SDS011;64592;52.168;21.040;2023-08-06T17:11:33;3.80;;;1.83;;
75912;SDS011;64592;52.168;21.040;2023-08-06T17:16:36;2.75;;;1.52;;
75912;SDS011;64592;52.168;21.040;2023-08-06T17:21:38;2.35;;;1.85;;
75912;SDS011;64592;52.168;21.040;2023-08-06T17:26:40;2.72;;;1.70;;
75912;SDS011;64592;52.168;21.040;2023-08-06T17:31:43;3.28;;;2.45;;
75912;SDS011;64592;52.168;21.040;2023-08-06T17:36:46;3.58;;;2.35;;
75912;SDS011;64592;52.168;21.040;2023-08-06T17:41:48;5.32;;;2.92;;
75912;SDS011;64592;52.168;21.040;2023-08-06T17:46:51;3.78;;;2.70;;
75912;SDS011;64592;52.168;21.040;2023-08-06T17:51:52;3.83;;;2.90;;
75912;SDS011;64592;52.168;21.040;2023-08-06T17:56:54;3.40;;;2.60;;
75912;SDS011;64592;52.168;21.040;2023-08-06T18:01:57;3.70;;;3.13;;
75912;SDS011;64592;52.168;21.040;2023-08-06T18:06:58;3.95;;;2.90;;
75912;SDS011;64592;52.168;21.040;2023-08-06T18:12:00;3.33;;;2.80;;
75912;SDS011;64592;52.168;21.040;2023-08-06T18:17:03;3.22;;;2.83;;
75912;SDS011;64592;52.168;21.040;2023-08-06T18:22:05;3.30;;;2.67;;
75912;SDS011;64592;52.168;21.040;2023-08-06T18:27:07;2.95;;;2.20;;
75912;SDS011;64592;52.168;21.040;2023-08-06T18:32:10;2.63;;;2.00;;
75912;SDS011;64592;52.168;21.040;2023-08-06T18:37:11;2.80;;;1.95;;
75912;SDS011;64592;52.168;21.040;2023-08-06T18:42:13;2.30;;;1.90;;
75912;SDS011;64592;52.168;21.040;2023-08-06T18:47:16;3.30;;;2.47;;
75912;SDS011;64592;52.168;21.040;2023-08-06T18:52:18;4.13;;;2.80;;
75912;SDS011;64592;52.168;21.040;2023-08-06T18:57:19;3.22;;;2.63;;
75912;SDS011;64592;52.168;21.040;2023-08-06T19:02:24;3.72;;;2.60;;
75912;SDS011;64592;52.168;21.040;2023-08-06T19:07:25;2.95;;;2.42;;
75912;SDS011;64592;52.168;21.040;2023-08-06T19:12:27;3.60;;;2.22;;
75912;SDS011;64592;52.168;21.040;2023-08-06T19:17:30;3.20;;;2.30;;
75912;SDS011;64592;52.168;21.040;2023-08-06T19:22:32;3.78;;;2.70;;
75912;SDS011;64592;52.168;21.040;2023-08-06T19:27:34;2.65;;;2.03;;
75912;SDS011;64592;52.168;21.040;2023-08-06T19:32:37;2.80;;;2.10;;
75912;SDS011;64592;52.168;21.040;2023-08-06T19:37:38;3.63;;;2.42;;
75912;SDS011;64592;52.168;21.040;2023-08-06T19:42:40;6.70;;;2.47;;
75912;SDS011;64592;52.168;21.040;2023-08-06T19:47:43;3.25;;;2.25;;
75912;SDS011;64592;52.168;21.040;2023-08-06T19:52:45;3.50;;;1.75;;
75912;SDS011;64592;52.168;21.040;2023-08-06T19:57:46;3.35;;;1.60;;
75912;SDS011;64592;52.168;21.040;2023-08-06T20:02:49;2.17;;;1.67;;
75912;SDS011;64592;52.168;21.040;2023-08-06T20:07:51;6.55;;;1.58;;
75912;SDS011;64592;52.168;21.040;2023-08-06T20:12:53;2.05;;;1.45;;
75912;SDS011;64592;52.168;21.040;2023-08-06T20:17:56;1.90;;;1.40;;
75912;SDS011;64592;52.168;21.040;2023-08-06T20:22:58;1.30;;;1.20;;
75912;SDS011;64592;52.168;21.040;2023-08-06T20:27:59;1.67;;;1.33;;
75912;SDS011;64592;52.168;21.040;2023-08-06T20:33:02;2.47;;;1.50;;
75912;SDS011;64592;52.168;21.040;2023-08-06T20:38:04;1.73;;;1.35;;
75912;SDS011;64592;52.168;21.040;2023-08-06T20:43:06;2.05;;;1.42;;
75912;SDS011;64592;52.168;21.040;2023-08-06T20:48:09;1.40;;;1.10;;
75912;SDS011;64592;52.168;21.040;2023-08-06T20:53:11;1.30;;;1.20;;
75912;SDS011;64592;52.168;21.040;2023-08-06T20:58:12;1.85;;;1.20;;
75912;SDS011;64592;52.168;21.040;2023-08-06T21:03:15;1.75;;;1.20;;
75912;SDS011;64592;52.168;21.040;2023-08-06T21:08:17;1.45;;;1.17;;
75912;SDS011;64592;52.168;21.040;2023-08-06T21:13:18;1.58;;;1.10;;
75912;SDS011;64592;52.168;21.040;2023-08-06T21:18:21;1.80;;;1.40;;
75912;SDS011;64592;52.168;21.040;2023-08-06T21:23:23;1.20;;;1.10;;
75912;SDS011;64592;52.168;21.040;2023-08-06T21:28:25;1.55;;;1.20;;
75912;SDS011;64592;52.168;21.040;2023-08-06T21:33:32;1.25;;;0.93;;
75912;SDS011;64592;52.168;21.040;2023-08-06T21:38:35;2.60;;;1.30;;
75912;SDS011;64592;52.168;21.040;2023-08-06T21:43:39;1.38;;;1.17;;
75912;SDS011;64592;52.168;21.040;2023-08-06T21:48:43;1.85;;;1.20;;
75912;SDS011;64592;52.168;21.040;2023-08-06T21:53:46;3.00;;;1.20;;
75912;SDS011;64592;52.168;21.040;2023-08-06T21:58:49;1.45;;;1.02;;
75912;SDS011;64592;52.168;21.040;2023-08-06T22:03:53;2.30;;;1.13;;
75912;SDS011;64592;52.168;21.040;2023-08-06T22:08:56;1.95;;;1.20;;
75912;SDS011;64592;52.168;21.040;2023-08-06T22:13:57;1.25;;;0.82;;
75912;SDS011;64592;52.168;21.040;2023-08-06T22:19:01;0.75;;;0.70;;
75912;SDS011;64592;52.168;21.040;2023-08-06T22:24:03;2.50;;;1.25;;
75912;SDS011;64592;52.168;21.040;2023-08-06T22:29:04;1.60;;;1.20;;
75912;SDS011;64592;52.168;21.040;2023-08-06T22:34:07;1.00;;;0.90;;
75912;SDS011;64592;52.168;21.040;2023-08-06T22:39:09;1.08;;;1.00;;
75912;SDS011;64592;52.168;21.040;2023-08-06T22:44:11;1.13;;;1.02;;
75912;SDS011;64592;52.168;21.040;2023-08-06T22:49:14;1.05;;;0.75;;
75912;SDS011;64592;52.168;21.040;2023-08-06T22:54:15;0.90;;;0.90;;
75912;SDS011;64592;52.168;21.040;2023-08-06T22:59:17;1.50;;;0.80;;
75912;SDS011;64592;52.168;21.040;2023-08-06T23:04:20;1.55;;;1.00;;
75912;SDS011;64592;52.168;21.040;2023-08-06T23:09:22;0.98;;;0.82;;
75912;SDS011;64592;52.168;21.040;2023-08-06T23:14:23;1.65;;;0.65;;
75912;SDS011;64592;52.168;21.040;2023-08-06T23:19:26;0.93;;;0.85;;
75912;SDS011;64592;52.168;21.040;2023-08-06T23:24:28;0.88;;;0.88;;
75912;SDS011;64592;52.168;21.040;2023-08-06T23:29:30;2.50;;;0.90;;
75912;SDS011;64592;52.168;21.040;2023-08-06T23:34:33;1.23;;;1.13;;
75912;SDS011;64592;52.168;21.040;2023-08-06T23:39:34;1.15;;;0.95;;
75912;SDS011;64592;52.168;21.040;2023-08-06T23:44:36;0.90;;;0.82;;
75912;SDS011;64592;52.168;21.040;2023-08-06T23:49:40;2.17;;;0.95;;
75912;SDS011;64592;52.168;21.040;2023-08-06T23:54:42;1.08;;;0.85;;
75912;SDS011;64592;52.168;21.040;2023-08-06T23:59:43;1.83;;;1.00;;
